Time;durP1;ratioP1;P1;durP2;ratioP2;P2;SDS_P1;SDS_P2;PMS_P1;PMS_P2;Temp;Humidity;BMP_temperature;BMP_pressure;BME280_temperature;BME280_humidity;BME280_pressure;Samples;Min_cycle;Max_cycle;Signal;HPM_P1;HPM_P2
2021/07/07 00:01:03;;;;;;;8.62;5.76;;;;;;;;;;328941;109;2561953;-73
2021/07/07 00:02:08;;;;;;;10.17;6.24;;;;;;;;;;369301;109;1961974;-72
2021/07/07 00:03:13;;;;;;;10.09;5.23;;;;;;;;;;354132;109;1962008;-71
2021/07/07 00:04:18;;;;;;;12.11;5.98;;;;;;;;;;318853;108;2197011;-72
2021/07/07 00:05:24;;;;;;;8.88;5.91;;;;;;;;;;337349;108;2577082;-71
2021/07/07 00:06:30;;;;;;;8.90;6.09;;;;;;;;;;369362;108;1963030;-72
2021/07/07 00:07:35;;;;;;;10.02;6.33;;;;;;;;;;369271;108;1962016;-72
2021/07/07 00:08:40;;;;;;;9.34;5.89;;;;;;;;;;360374;107;1961998;-72
2021/07/07 00:09:45;;;;;;;10.47;6.17;;;;;;;;;;325406;107;2144967;-73
2021/07/07 00:10:50;;;;;;;11.21;5.74;;;;;;;;;;319638;107;2205063;-73
2021/07/07 00:11:56;;;;;;;9.16;5.61;;;;;;;;;;306440;107;2328011;-72
2021/07/07 00:13:02;;;;;;;9.44;5.59;;;;;;;;;;307408;109;2331949;-71
2021/07/07 00:14:07;;;;;;;9.28;6.38;;;;;;;;;;369926;109;1962043;-74
2021/07/07 00:15:14;;;;;;;9.62;6.08;;;;;;;;;;364361;109;1961928;-73
2021/07/07 00:16:19;;;;;;;9.68;6.26;;;;;;;;;;357110;110;1962973;-73
2021/07/07 00:17:24;;;;;;;9.53;5.91;;;;;;;;;;359354;112;1962086;-73
2021/07/07 00:18:36;;;;;;;9.99;6.12;;;;;;;;;;387080;105;1985890;-73
2021/07/07 00:19:41;;;;;;;8.73;6.21;;;;;;;;;;369062;107;1964045;-72
2021/07/07 00:20:54;;;;;;;9.99;6.07;;;;;;;;;;366946;108;1962217;-73
2021/07/07 00:22:00;;;;;;;10.25;6.37;;;;;;;;;;333825;108;2081991;-74
2021/07/07 00:23:05;;;;;;;10.01;6.01;;;;;;;;;;304703;107;2360999;-73
2021/07/07 00:24:11;;;;;;;10.32;6.29;;;;;;;;;;310064;108;2482982;-72
2021/07/07 00:25:16;;;;;;;9.60;6.16;;;;;;;;;;358805;107;1961932;-72
2021/07/07 00:26:23;;;;;;;8.36;6.42;;;;;;;;;;371465;108;1961897;-72
2021/07/07 00:27:28;;;;;;;10.06;5.86;;;;;;;;;;372461;108;1962056;-72
2021/07/07 00:28:32;;;;;;;9.66;6.08;;;;;;;;;;370492;107;1961974;-72
2021/07/07 00:29:38;;;;;;;8.60;5.77;;;;;;;;;;353598;107;1963940;-73
2021/07/07 00:30:50;;;;;;;10.21;6.16;;;;;;;;;;392005;104;1987068;-71
2021/07/07 00:31:55;;;;;;;9.13;6.11;;;;;;;;;;369368;107;1970029;-71
2021/07/07 00:33:00;;;;;;;9.10;5.86;;;;;;;;;;369219;107;1961986;-72
2021/07/07 00:34:05;;;;;;;12.11;6.26;;;;;;;;;;368718;107;1962055;-71
2021/07/07 00:35:10;;;;;;;11.38;6.22;;;;;;;;;;353070;109;1964054;-72
2021/07/07 00:36:16;;;;;;;10.90;6.26;;;;;;;;;;370808;107;1961885;-73
2021/07/07 00:37:21;;;;;;;10.78;6.12;;;;;;;;;;364566;110;1961999;-72
2021/07/07 00:38:25;;;;;;;9.21;6.11;;;;;;;;;;340519;109;1968881;-72
2021/07/07 00:39:31;;;;;;;8.81;6.35;;;;;;;;;;299981;107;2391933;-72
2021/07/07 00:40:39;;;;;;;11.46;6.60;;;;;;;;;;369267;107;1961989;-73
2021/07/07 00:41:44;;;;;;;11.61;6.15;;;;;;;;;;368186;107;1962936;-74
2021/07/07 00:42:48;;;;;;;10.69;6.04;;;;;;;;;;369580;107;1962004;-72
2021/07/07 00:43:53;;;;;;;10.25;5.99;;;;;;;;;;370322;109;1961805;-73
2021/07/07 00:44:58;;;;;;;9.52;6.30;;;;;;;;;;361879;107;1961895;-73
2021/07/07 00:46:03;;;;;;;10.48;6.12;;;;;;;;;;311375;109;2215009;-73
2021/07/07 00:47:09;;;;;;;9.72;6.49;;;;;;;;;;306468;108;2322026;-73
2021/07/07 00:48:14;;;;;;;10.36;6.64;;;;;;;;;;308449;109;2304883;-72
2021/07/07 00:49:19;;;;;;;9.63;6.39;;;;;;;;;;312339;109;2264083;-71
2021/07/07 00:50:25;;;;;;;9.63;5.95;;;;;;;;;;362974;110;1962093;-72
2021/07/07 00:51:34;;;;;;;12.11;6.59;;;;;;;;;;346778;109;1963978;-72
2021/07/07 00:52:46;;;;;;;13.01;7.17;;;;;;;;;;350661;104;2765989;-72
2021/07/07 00:53:53;;;;;;;10.49;7.35;;;;;;;;;;333103;106;2556993;-72
2021/07/07 00:54:58;;;;;;;10.52;6.64;;;;;;;;;;374457;107;1963836;-72
2021/07/07 00:56:04;;;;;;;12.71;6.84;;;;;;;;;;370392;107;1961995;-72
2021/07/07 00:57:10;;;;;;;9.02;6.53;;;;;;;;;;370229;108;1962934;-72
2021/07/07 00:58:22;;;;;;;11.52;7.33;;;;;;;;;;376752;106;2872052;-73
2021/07/07 00:59:28;;;;;;;12.48;6.94;;;;;;;;;;358987;111;1962036;-72
2021/07/07 01:00:35;;;;;;;10.17;7.28;;;;;;;;;;365507;108;1962863;-71
2021/07/07 01:01:40;;;;;;;9.17;6.16;;;;;;;;;;363316;109;1961948;-73
2021/07/07 01:02:46;;;;;;;14.06;7.41;;;;;;;;;;362667;110;1962001;-70
2021/07/07 01:03:58;;;;;;;12.53;7.41;;;;;;;;;;398946;101;2071031;-72
2021/07/07 01:05:03;;;;;;;11.09;7.23;;;;;;;;;;380977;105;1962036;-73
2021/07/07 01:06:08;;;;;;;10.59;7.09;;;;;;;;;;385235;103;1962006;-73
2021/07/07 01:07:14;;;;;;;13.15;7.21;;;;;;;;;;385424;103;1961876;-70
2021/07/07 01:08:19;;;;;;;9.71;6.97;;;;;;;;;;385813;103;1962016;-70
2021/07/07 01:09:24;;;;;;;9.87;7.28;;;;;;;;;;385595;103;1961960;-73
2021/07/07 01:10:31;;;;;;;10.24;7.13;;;;;;;;;;385734;103;1962058;-73
2021/07/07 01:11:36;;;;;;;11.85;7.77;;;;;;;;;;387453;103;1962059;-72
2021/07/07 01:12:43;;;;;;;11.96;7.18;;;;;;;;;;385168;103;1962056;-74
2021/07/07 01:13:48;;;;;;;12.44;6.79;;;;;;;;;;345898;103;2717959;-73
2021/07/07 01:14:55;;;;;;;11.21;7.01;;;;;;;;;;331734;103;2217986;-72
2021/07/07 01:16:01;;;;;;;10.24;6.57;;;;;;;;;;387295;103;1962012;-74
2021/07/07 01:17:07;;;;;;;11.68;7.34;;;;;;;;;;379534;106;1963078;-73
2021/07/07 01:18:12;;;;;;;12.39;7.24;;;;;;;;;;386845;103;1961914;-73
2021/07/07 01:19:17;;;;;;;11.94;6.73;;;;;;;;;;385605;103;1962972;-73
2021/07/07 01:20:24;;;;;;;11.09;6.01;;;;;;;;;;385472;103;1962865;-73
2021/07/07 01:21:28;;;;;;;9.08;6.37;;;;;;;;;;385414;103;1961959;-72
2021/07/07 01:22:33;;;;;;;13.01;7.59;;;;;;;;;;387598;103;1962990;-73
2021/07/07 01:23:38;;;;;;;12.20;6.70;;;;;;;;;;385411;103;1962785;-73
2021/07/07 01:24:43;;;;;;;10.12;6.98;;;;;;;;;;385855;103;1962058;-72
2021/07/07 01:25:48;;;;;;;12.80;6.99;;;;;;;;;;385369;103;1962121;-74
2021/07/07 01:26:59;;;;;;;11.10;6.09;;;;;;;;;;400683;101;1986007;-73
2021/07/07 01:28:06;;;;;;;11.16;6.82;;;;;;;;;;384006;105;1965060;-73
2021/07/07 01:29:12;;;;;;;10.74;6.44;;;;;;;;;;382059;105;1961971;-73
2021/07/07 01:30:21;;;;;;;10.31;6.92;;;;;;;;;;333446;103;2860981;-73
2021/07/07 01:31:26;;;;;;;10.13;6.74;;;;;;;;;;375258;106;1961983;-72
2021/07/07 01:32:31;;;;;;;9.42;6.84;;;;;;;;;;374450;106;1961987;-72
2021/07/07 01:33:36;;;;;;;14.17;7.04;;;;;;;;;;374923;107;1963828;-71
2021/07/07 01:34:41;;;;;;;11.57;6.61;;;;;;;;;;364676;105;1963034;-70
2021/07/07 01:35:46;;;;;;;9.03;6.65;;;;;;;;;;339920;106;2021919;-71
2021/07/07 01:36:52;;;;;;;9.88;6.53;;;;;;;;;;372532;106;1962002;-72
2021/07/07 01:37:57;;;;;;;10.28;6.93;;;;;;;;;;367647;107;1962957;-71
2021/07/07 01:39:03;;;;;;;9.88;6.34;;;;;;;;;;323405;105;2186001;-72
2021/07/07 01:40:11;;;;;;;12.67;7.07;;;;;;;;;;373393;105;1961975;-73
2021/07/07 01:41:17;;;;;;;11.01;6.16;;;;;;;;;;373253;105;1962980;-72
2021/07/07 01:42:28;;;;;;;11.34;6.76;;;;;;;;;;340958;106;2191184;-72
2021/07/07 01:43:34;;;;;;;8.40;6.28;;;;;;;;;;337543;109;2559011;-72
2021/07/07 01:44:39;;;;;;;11.16;6.58;;;;;;;;;;323509;109;2144080;-71
2021/07/07 01:45:44;;;;;;;9.50;6.41;;;;;;;;;;299584;112;2456837;-72
2021/07/07 01:46:50;;;;;;;11.06;6.97;;;;;;;;;;319642;109;2507971;-72
2021/07/07 01:47:55;;;;;;;11.28;6.39;;;;;;;;;;299382;109;2445976;-73
2021/07/07 01:49:01;;;;;;;10.64;6.67;;;;;;;;;;303078;109;2296874;-74
2021/07/07 01:50:08;;;;;;;10.04;5.99;;;;;;;;;;331899;109;2002966;-73
2021/07/07 01:51:13;;;;;;;11.59;7.15;;;;;;;;;;364444;109;1965043;-70
2021/07/07 01:52:18;;;;;;;10.45;6.91;;;;;;;;;;355289;112;1961958;-74
2021/07/07 01:53:23;;;;;;;10.81;7.05;;;;;;;;;;361163;110;1962042;-70
2021/07/07 01:54:27;;;;;;;12.39;6.44;;;;;;;;;;342616;109;1962046;-72
2021/07/07 01:55:33;;;;;;;11.03;6.49;;;;;;;;;;298067;109;2436003;-70
2021/07/07 01:56:44;;;;;;;10.07;6.18;;;;;;;;;;398672;104;1985966;-72
2021/07/07 01:57:49;;;;;;;13.34;7.41;;;;;;;;;;383634;105;1970061;-72
2021/07/07 01:58:55;;;;;;;10.83;7.08;;;;;;;;;;384113;104;1961958;-73
2021/07/07 02:00:00;;;;;;;10.98;6.09;;;;;;;;;;382885;105;1964040;-72
2021/07/07 02:01:06;;;;;;;11.57;7.42;;;;;;;;;;382995;104;1962062;-72
2021/07/07 02:02:11;;;;;;;14.91;8.74;;;;;;;;;;381871;104;1962081;-72
2021/07/07 02:03:16;;;;;;;13.72;6.93;;;;;;;;;;370265;104;1961942;-72
2021/07/07 02:04:22;;;;;;;13.34;7.13;;;;;;;;;;341296;105;2107002;-72
2021/07/07 02:05:29;;;;;;;10.40;6.79;;;;;;;;;;376942;104;1962031;-71
2021/07/07 02:06:41;;;;;;;13.97;6.46;;;;;;;;;;386471;106;1985968;-71
2021/07/07 02:07:46;;;;;;;10.55;6.89;;;;;;;;;;367855;109;1971032;-72
2021/07/07 02:08:52;;;;;;;11.34;6.81;;;;;;;;;;321952;109;2837923;-72
2021/07/07 02:09:58;;;;;;;10.91;6.98;;;;;;;;;;302179;109;2426882;-72
2021/07/07 02:11:03;;;;;;;14.36;7.15;;;;;;;;;;336491;108;2014924;-71
2021/07/07 02:12:09;;;;;;;12.13;6.32;;;;;;;;;;297157;108;2391995;-71
2021/07/07 02:13:15;;;;;;;9.81;6.11;;;;;;;;;;295652;109;2395984;-71
2021/07/07 02:14:20;;;;;;;10.20;6.88;;;;;;;;;;367121;109;1961990;-71
2021/07/07 02:15:27;;;;;;;10.41;6.61;;;;;;;;;;358957;109;1963961;-72
2021/07/07 02:16:34;;;;;;;12.42;6.76;;;;;;;;;;368356;108;1963977;-73
2021/07/07 02:17:40;;;;;;;12.66;6.49;;;;;;;;;;368898;108;1962975;-72
2021/07/07 02:18:45;;;;;;;12.61;6.60;;;;;;;;;;360450;109;2931982;-71
2021/07/07 02:19:50;;;;;;;11.87;6.66;;;;;;;;;;369824;108;1962012;-73
2021/07/07 02:20:56;;;;;;;12.92;7.17;;;;;;;;;;368271;108;1961959;-72
2021/07/07 02:22:01;;;;;;;12.41;7.14;;;;;;;;;;367107;109;1961836;-71
2021/07/07 02:23:10;;;;;;;9.24;6.16;;;;;;;;;;368086;107;1961994;-71
2021/07/07 02:24:17;;;;;;;9.77;6.48;;;;;;;;;;367496;109;1962994;-73
2021/07/07 02:25:23;;;;;;;10.00;6.66;;;;;;;;;;366701;108;1962041;-71
2021/07/07 02:26:35;;;;;;;11.73;6.95;;;;;;;;;;394400;104;1986041;-73
2021/07/07 02:27:40;;;;;;;10.12;6.97;;;;;;;;;;376270;105;1961916;-73
2021/07/07 02:28:51;;;;;;;11.18;6.68;;;;;;;;;;406305;101;1986069;-72
2021/07/07 02:29:56;;;;;;;10.88;5.83;;;;;;;;;;388258;103;1961954;-74
2021/07/07 02:31:19;;;;;;;11.13;6.26;;;;;;;;;;381341;103;1962131;-72
2021/07/07 02:32:24;;;;;;;9.87;6.54;;;;;;;;;;382721;105;1962949;-74
2021/07/07 02:33:30;;;;;;;10.97;6.22;;;;;;;;;;380455;103;1963333;-73
2021/07/07 02:34:35;;;;;;;10.00;5.79;;;;;;;;;;382922;105;1963012;-72
2021/07/07 02:35:47;;;;;;;10.63;6.39;;;;;;;;;;366977;101;2060000;-72
2021/07/07 02:36:52;;;;;;;10.32;6.74;;;;;;;;;;336077;105;2113993;-72
2021/07/07 02:37:58;;;;;;;8.88;5.94;;;;;;;;;;321965;107;2483123;-71
2021/07/07 02:39:04;;;;;;;10.21;6.77;;;;;;;;;;338563;106;2084988;-72
2021/07/07 02:40:10;;;;;;;10.24;6.51;;;;;;;;;;378181;105;1962007;-71
2021/07/07 02:41:15;;;;;;;10.86;6.17;;;;;;;;;;379304;105;1962926;-70
2021/07/07 02:42:20;;;;;;;10.21;6.36;;;;;;;;;;378822;105;1962014;-70
2021/07/07 02:43:31;;;;;;;11.26;6.67;;;;;;;;;;387021;106;1986026;-73
2021/07/07 02:44:36;;;;;;;10.58;6.23;;;;;;;;;;366674;109;1964023;-72
2021/07/07 02:45:42;;;;;;;18.94;7.49;;;;;;;;;;367890;107;1962059;-73
2021/07/07 02:46:47;;;;;;;12.32;6.48;;;;;;;;;;370163;108;1961953;-73
2021/07/07 02:47:53;;;;;;;12.61;6.92;;;;;;;;;;363465;110;1963018;-72
2021/07/07 02:48:58;;;;;;;12.51;6.75;;;;;;;;;;364958;108;1961985;-73
2021/07/07 02:50:04;;;;;;;12.91;6.52;;;;;;;;;;372001;108;1961857;-73
2021/07/07 02:51:09;;;;;;;10.85;6.42;;;;;;;;;;370267;108;1961815;-73
2021/07/07 02:52:14;;;;;;;10.64;6.24;;;;;;;;;;369650;108;1961979;-72
2021/07/07 02:53:19;;;;;;;13.91;6.90;;;;;;;;;;370739;108;1963988;-71
2021/07/07 02:54:24;;;;;;;11.57;6.43;;;;;;;;;;371327;108;1961931;-71
2021/07/07 02:55:28;;;;;;;19.63;7.74;;;;;;;;;;354722;108;1962057;-73
2021/07/07 02:56:34;;;;;;;11.42;6.02;;;;;;;;;;368499;107;1961965;-72
2021/07/07 02:57:58;;;;;;;11.37;6.33;;;;;;;;;;387124;106;1986055;-71
2021/07/07 02:59:03;;;;;;;10.01;6.13;;;;;;;;;;366711;109;1961993;-72
2021/07/07 03:00:09;;;;;;;16.18;10.22;;;;;;;;;;367518;109;1963160;-74
2021/07/07 03:01:14;;;;;;;13.51;9.04;;;;;;;;;;359621;107;2886940;-72
2021/07/07 03:02:20;;;;;;;12.98;7.05;;;;;;;;;;367407;109;1962069;-72
2021/07/07 03:03:26;;;;;;;11.58;5.81;;;;;;;;;;372537;107;1962005;-72
2021/07/07 03:04:31;;;;;;;10.45;6.24;;;;;;;;;;321981;109;2825050;-73
2021/07/07 03:05:38;;;;;;;10.01;6.04;;;;;;;;;;307992;109;2463989;-72
2021/07/07 03:06:46;;;;;;;13.22;6.64;;;;;;;;;;367039;109;1962055;-73
2021/07/07 03:07:52;;;;;;;10.58;6.39;;;;;;;;;;368275;109;1961991;-72
2021/07/07 03:09:00;;;;;;;12.90;6.57;;;;;;;;;;354909;109;2839975;-72
2021/07/07 03:10:09;;;;;;;10.93;6.33;;;;;;;;;;369342;109;1961969;-72
2021/07/07 03:11:14;;;;;;;12.88;6.60;;;;;;;;;;303824;108;2344967;-73
2021/07/07 03:12:22;;;;;;;11.19;6.36;;;;;;;;;;367727;107;1961988;-72
2021/07/07 03:13:28;;;;;;;12.62;7.34;;;;;;;;;;368582;109;1962936;-73
2021/07/07 03:14:35;;;;;;;14.98;7.32;;;;;;;;;;325756;107;2115959;-74
2021/07/07 03:15:40;;;;;;;14.13;7.47;;;;;;;;;;315243;109;2498961;-73
2021/07/07 03:16:46;;;;;;;12.04;6.83;;;;;;;;;;308730;107;2316033;-74
2021/07/07 03:17:53;;;;;;;11.52;7.06;;;;;;;;;;329706;107;2556008;-72
2021/07/07 03:18:58;;;;;;;10.89;6.73;;;;;;;;;;368406;107;1963948;-73
2021/07/07 03:20:11;;;;;;;14.22;6.24;;;;;;;;;;396046;104;1971975;-72
2021/07/07 03:21:16;;;;;;;11.21;6.01;;;;;;;;;;370840;105;2848007;-74
2021/07/07 03:22:22;;;;;;;11.73;6.09;;;;;;;;;;381516;105;1961979;-71
2021/07/07 03:23:27;;;;;;;11.41;6.64;;;;;;;;;;382798;105;1965047;-72
2021/07/07 03:24:32;;;;;;;11.81;6.48;;;;;;;;;;380924;105;1962092;-72
2021/07/07 03:25:38;;;;;;;15.19;7.16;;;;;;;;;;381984;105;1961919;-73
2021/07/07 03:26:44;;;;;;;10.39;6.54;;;;;;;;;;346474;105;2588017;-71
2021/07/07 03:27:50;;;;;;;11.49;6.66;;;;;;;;;;326766;105;2483073;-70
2021/07/07 03:28:55;;;;;;;11.83;7.11;;;;;;;;;;378009;105;1963064;-72
2021/07/07 03:30:01;;;;;;;11.49;6.91;;;;;;;;;;354734;105;1961878;-71
2021/07/07 03:31:06;;;;;;;13.70;6.46;;;;;;;;;;350061;105;2003959;-73
2021/07/07 03:32:11;;;;;;;12.96;6.66;;;;;;;;;;308685;105;2382892;-72
2021/07/07 03:33:26;;;;;;;11.10;6.82;;;;;;;;;;402497;101;1987868;-73
2021/07/07 03:34:31;;;;;;;11.42;7.34;;;;;;;;;;384819;103;1962990;-72
2021/07/07 03:35:37;;;;;;;12.34;6.42;;;;;;;;;;385466;103;1962012;-73
2021/07/07 03:36:43;;;;;;;13.82;9.69;;;;;;;;;;337112;104;2141964;-73
2021/07/07 03:37:49;;;;;;;13.92;7.78;;;;;;;;;;316648;105;2327995;-73
2021/07/07 03:38:55;;;;;;;11.41;6.64;;;;;;;;;;384646;105;1961054;-73
2021/07/07 03:40:00;;;;;;;10.19;7.12;;;;;;;;;;383829;103;1964003;-73
2021/07/07 03:41:05;;;;;;;14.19;7.15;;;;;;;;;;374299;106;1962039;-74
2021/07/07 03:42:10;;;;;;;12.49;7.57;;;;;;;;;;379324;103;1962004;-72
2021/07/07 03:43:15;;;;;;;12.63;6.87;;;;;;;;;;357031;105;1961944;-73
2021/07/07 03:44:20;;;;;;;11.50;6.49;;;;;;;;;;308628;104;2399985;-72
2021/07/07 03:45:32;;;;;;;11.66;7.01;;;;;;;;;;393887;104;1986057;-72
2021/07/07 03:46:37;;;;;;;16.10;7.19;;;;;;;;;;379322;106;1962084;-73
2021/07/07 03:47:42;;;;;;;9.77;5.80;;;;;;;;;;377339;106;1962074;-73
2021/07/07 03:48:47;;;;;;;11.80;6.34;;;;;;;;;;372142;106;1961944;-73
2021/07/07 03:49:59;;;;;;;14.44;6.94;;;;;;;;;;384967;106;1986962;-74
2021/07/07 03:51:03;;;;;;;15.34;7.88;;;;;;;;;;364202;108;1970056;-72
2021/07/07 03:52:08;;;;;;;11.29;7.21;;;;;;;;;;352790;112;1962994;-74
2021/07/07 03:53:13;;;;;;;14.44;7.61;;;;;;;;;;333425;111;1961980;-73
2021/07/07 03:54:23;;;;;;;15.86;6.96;;;;;;;;;;316082;110;2171965;-73
2021/07/07 03:55:26;;;;;;;13.52;7.16;;;;;;;;;;361436;109;1962018;-73
2021/07/07 03:56:32;;;;;;;10.13;5.61;;;;;;;;;;363615;109;1961994;-73
2021/07/07 03:57:38;;;;;;;12.72;6.97;;;;;;;;;;364299;109;1961959;-73
2021/07/07 03:58:42;;;;;;;16.63;11.80;;;;;;;;;;362961;109;1961992;-73
2021/07/07 03:59:47;;;;;;;18.52;12.76;;;;;;;;;;362501;110;1961904;-73
2021/07/07 04:00:52;;;;;;;12.12;6.74;;;;;;;;;;363757;110;1962088;-73
2021/07/07 04:01:58;;;;;;;12.67;7.71;;;;;;;;;;363745;109;1963001;-72
2021/07/07 04:03:03;;;;;;;12.51;9.18;;;;;;;;;;363999;110;1965062;-73
2021/07/07 04:04:21;;;;;;;12.08;6.41;;;;;;;;;;356900;110;1961998;-74
2021/07/07 04:06:17;;;;;;;12.06;7.16;;;;;;;;;;353928;112;1961928;-75
2021/07/07 04:08:14;;;;;;;11.14;5.87;;;;;;;;;;355037;113;1961968;-74
2021/07/07 04:10:12;;;;;;;12.74;5.98;;;;;;;;;;373153;104;2896861;-74
2021/07/07 04:11:22;;;;;;;11.84;6.28;;;;;;;;;;366153;109;1969013;-74
2021/07/07 04:12:27;;;;;;;12.26;5.95;;;;;;;;;;368099;109;1961868;-73
2021/07/07 04:13:32;;;;;;;9.94;4.91;;;;;;;;;;363598;109;1963887;-72
2021/07/07 04:14:37;;;;;;;10.99;6.48;;;;;;;;;;364069;109;1964048;-72
2021/07/07 04:15:42;;;;;;;11.82;6.03;;;;;;;;;;366807;109;1962045;-74
2021/07/07 04:16:48;;;;;;;13.49;6.88;;;;;;;;;;366712;110;1962970;-72
2021/07/07 04:17:53;;;;;;;9.83;5.81;;;;;;;;;;365564;110;1961937;-72
2021/07/07 04:19:04;;;;;;;11.48;5.11;;;;;;;;;;396953;103;1986893;-71
2021/07/07 04:20:11;;;;;;;11.24;4.94;;;;;;;;;;379576;105;1970022;-72
2021/07/07 04:21:17;;;;;;;10.77;5.45;;;;;;;;;;375003;105;1963989;-72
2021/07/07 04:22:23;;;;;;;7.79;4.65;;;;;;;;;;368156;108;1961983;-74
2021/07/07 04:23:34;;;;;;;10.78;4.49;;;;;;;;;;368916;104;1997789;-72
2021/07/07 04:24:40;;;;;;;11.18;4.94;;;;;;;;;;326498;107;2193106;-72
2021/07/07 04:25:45;;;;;;;11.58;5.01;;;;;;;;;;317376;107;2257086;-72
2021/07/07 04:26:51;;;;;;;7.91;4.38;;;;;;;;;;367435;106;1961962;-72
2021/07/07 04:27:56;;;;;;;8.77;3.87;;;;;;;;;;375578;107;1964879;-73
2021/07/07 04:29:01;;;;;;;8.67;4.64;;;;;;;;;;359430;107;1961965;-72
2021/07/07 04:30:08;;;;;;;10.11;4.30;;;;;;;;;;318849;107;2250024;-71
2021/07/07 04:31:13;;;;;;;10.73;4.32;;;;;;;;;;376711;107;1964955;-74
2021/07/07 04:32:19;;;;;;;11.14;4.51;;;;;;;;;;376760;107;1962005;-74
2021/07/07 04:33:23;;;;;;;10.03;4.64;;;;;;;;;;376089;107;1961888;-73
2021/07/07 04:34:28;;;;;;;13.99;4.47;;;;;;;;;;373942;106;1961897;-72
2021/07/07 04:35:33;;;;;;;7.28;4.06;;;;;;;;;;350743;105;1961939;-73
2021/07/07 04:36:45;;;;;;;8.07;4.52;;;;;;;;;;373111;108;1986802;-74
2021/07/07 04:37:50;;;;;;;10.06;5.02;;;;;;;;;;360682;111;1961957;-72
2021/07/07 04:38:57;;;;;;;10.28;5.37;;;;;;;;;;357724;111;1961942;-72
2021/07/07 04:40:03;;;;;;;9.83;5.94;;;;;;;;;;356155;113;1962056;-72
2021/07/07 04:41:07;;;;;;;8.67;4.66;;;;;;;;;;360186;111;1962020;-73
2021/07/07 04:42:12;;;;;;;8.15;3.98;;;;;;;;;;361590;111;1962080;-72
2021/07/07 04:43:17;;;;;;;9.39;8.12;;;;;;;;;;361680;111;1963981;-72
2021/07/07 04:44:22;;;;;;;12.32;7.34;;;;;;;;;;359173;111;1963021;-72
2021/07/07 04:45:27;;;;;;;8.68;4.19;;;;;;;;;;342084;109;1961909;-72
2021/07/07 04:46:33;;;;;;;9.99;4.43;;;;;;;;;;361198;111;1962939;-72
2021/07/07 04:47:38;;;;;;;15.36;5.52;;;;;;;;;;346371;111;1961889;-71
2021/07/07 04:48:50;;;;;;;8.39;4.79;;;;;;;;;;385442;106;1984980;-74
2021/07/07 04:49:55;;;;;;;7.65;4.00;;;;;;;;;;364219;110;1962048;-73
2021/07/07 04:51:00;;;;;;;10.84;4.63;;;;;;;;;;367336;109;1961960;-73
2021/07/07 04:52:05;;;;;;;7.79;3.73;;;;;;;;;;358071;107;1962028;-72
2021/07/07 04:53:10;;;;;;;11.59;4.29;;;;;;;;;;339955;107;1991970;-72
2021/07/07 04:54:15;;;;;;;9.67;4.86;;;;;;;;;;297312;108;2392989;-73
2021/07/07 04:55:21;;;;;;;9.83;4.67;;;;;;;;;;313066;108;2239119;-74
2021/07/07 04:56:26;;;;;;;10.43;4.28;;;;;;;;;;312739;107;2260857;-74
2021/07/07 04:58:46;;;;;;;10.05;4.71;;;;;;;;;;392538;104;1986975;-73
2021/07/07 04:59:51;;;;;;;9.11;4.90;;;;;;;;;;375165;107;1960814;-72
2021/07/07 05:00:57;;;;;;;10.03;4.06;;;;;;;;;;375093;107;1962054;-73
2021/07/07 05:02:02;;;;;;;10.21;4.43;;;;;;;;;;374335;107;1962017;-74
2021/07/07 05:03:08;;;;;;;8.87;4.40;;;;;;;;;;361016;106;2844879;-73
2021/07/07 05:04:19;;;;;;;11.01;3.84;;;;;;;;;;368188;104;2029900;-72
2021/07/07 05:05:24;;;;;;;6.99;4.05;;;;;;;;;;305211;105;2434950;-71
2021/07/07 05:06:32;;;;;;;7.37;3.85;;;;;;;;;;370644;108;1963361;-73
2021/07/07 05:07:37;;;;;;;8.83;3.97;;;;;;;;;;370253;107;1962012;-73
2021/07/07 05:08:42;;;;;;;7.23;4.24;;;;;;;;;;370057;108;1962036;-73
2021/07/07 05:09:47;;;;;;;9.27;4.36;;;;;;;;;;370537;108;1961934;-72
2021/07/07 05:10:52;;;;;;;9.90;4.05;;;;;;;;;;372893;108;1961905;-73
2021/07/07 05:11:57;;;;;;;10.93;4.95;;;;;;;;;;357334;108;1962055;-72
2021/07/07 05:13:04;;;;;;;7.88;4.53;;;;;;;;;;331167;108;2107039;-72
2021/07/07 05:14:12;;;;;;;9.41;4.93;;;;;;;;;;371089;108;1962017;-73
2021/07/07 05:15:18;;;;;;;7.99;3.73;;;;;;;;;;322416;107;2874979;-73
2021/07/07 05:16:24;;;;;;;9.36;4.28;;;;;;;;;;368782;108;1961944;-74
2021/07/07 05:17:29;;;;;;;9.21;4.31;;;;;;;;;;351601;109;1961884;-71
2021/07/07 05:18:34;;;;;;;7.34;3.55;;;;;;;;;;319583;108;2199930;-73
2021/07/07 05:19:40;;;;;;;9.22;3.93;;;;;;;;;;322387;108;2560866;-73
2021/07/07 05:20:47;;;;;;;11.66;3.74;;;;;;;;;;371318;108;1960857;-74
2021/07/07 05:21:52;;;;;;;7.79;3.37;;;;;;;;;;371625;108;1963984;-74
2021/07/07 05:22:57;;;;;;;8.97;4.19;;;;;;;;;;371822;108;1961851;-74
2021/07/07 05:24:02;;;;;;;8.87;3.40;;;;;;;;;;373275;107;1961992;-74
2021/07/07 05:25:19;;;;;;;5.93;3.11;;;;;;;;;;350827;108;1961967;-74
2021/07/07 05:26:26;;;;;;;7.43;4.26;;;;;;;;;;367396;110;1962065;-73
2021/07/07 05:27:32;;;;;;;8.31;3.98;;;;;;;;;;365786;109;1961974;-74
2021/07/07 05:28:37;;;;;;;8.08;4.74;;;;;;;;;;365230;110;1961021;-74
2021/07/07 05:29:43;;;;;;;11.11;4.17;;;;;;;;;;365326;107;1961991;-74
2021/07/07 05:30:49;;;;;;;10.34;5.01;;;;;;;;;;325446;108;2725952;-73
2021/07/07 05:32:01;;;;;;;10.88;5.84;;;;;;;;;;389259;104;2073004;-74
2021/07/07 05:33:08;;;;;;;8.58;4.25;;;;;;;;;;374835;107;1970041;-73
2021/07/07 05:34:13;;;;;;;8.18;3.74;;;;;;;;;;374037;106;1963085;-74
2021/07/07 05:35:18;;;;;;;12.39;4.85;;;;;;;;;;375373;106;1962008;-75
2021/07/07 05:36:23;;;;;;;8.36;4.22;;;;;;;;;;372499;107;1961840;-73
2021/07/07 05:37:35;;;;;;;8.53;4.34;;;;;;;;;;391310;104;1985843;-73
2021/07/07 05:38:40;;;;;;;9.13;4.23;;;;;;;;;;372788;107;1970036;-73
2021/07/07 05:39:45;;;;;;;9.66;4.22;;;;;;;;;;377538;107;1962003;-74
2021/07/07 05:40:51;;;;;;;8.59;4.67;;;;;;;;;;377328;105;1963088;-75
2021/07/07 05:41:56;;;;;;;10.74;4.62;;;;;;;;;;375504;107;1961889;-75
2021/07/07 05:43:14;;;;;;;9.10;4.68;;;;;;;;;;352250;104;2587908;-74
2021/07/07 05:44:20;;;;;;;8.33;3.69;;;;;;;;;;341723;105;2054726;-74
2021/07/07 05:45:26;;;;;;;6.68;3.99;;;;;;;;;;312014;105;2362910;-74
2021/07/07 05:46:33;;;;;;;9.70;4.53;;;;;;;;;;369736;109;1961058;-73
2021/07/07 05:47:38;;;;;;;8.51;4.04;;;;;;;;;;369902;108;1963980;-73
2021/07/07 05:48:44;;;;;;;7.83;3.79;;;;;;;;;;372318;107;1961878;-76
2021/07/07 05:49:49;;;;;;;7.92;3.68;;;;;;;;;;372944;107;1962038;-73
2021/07/07 05:50:54;;;;;;;7.08;3.61;;;;;;;;;;370482;108;1961853;-74
2021/07/07 05:51:59;;;;;;;13.07;5.28;;;;;;;;;;372499;107;1962054;-73
2021/07/07 05:53:16;;;;;;;9.97;3.77;;;;;;;;;;395404;104;1985974;-74
2021/07/07 05:54:21;;;;;;;7.88;4.12;;;;;;;;;;374221;105;1969062;-71
2021/07/07 05:55:28;;;;;;;11.77;6.23;;;;;;;;;;375652;107;1962058;-71
2021/07/07 05:56:34;;;;;;;10.96;4.59;;;;;;;;;;369365;107;1961938;-71
2021/07/07 05:57:39;;;;;;;8.86;4.57;;;;;;;;;;378193;106;1962013;-70
2021/07/07 05:58:46;;;;;;;8.29;4.00;;;;;;;;;;379466;106;1962058;-71
2021/07/07 05:59:52;;;;;;;9.63;4.46;;;;;;;;;;309606;106;2385016;-70
2021/07/07 06:00:57;;;;;;;7.29;3.67;;;;;;;;;;356190;103;1962182;-72
2021/07/07 06:02:02;;;;;;;8.36;4.32;;;;;;;;;;320397;110;2205002;-72
2021/07/07 06:03:09;;;;;;;10.58;5.64;;;;;;;;;;298668;108;2414949;-71
2021/07/07 06:04:14;;;;;;;9.44;4.72;;;;;;;;;;368639;110;1964093;-71
2021/07/07 06:05:20;;;;;;;7.68;3.94;;;;;;;;;;368958;108;1961999;-72
2021/07/07 06:06:27;;;;;;;8.43;4.20;;;;;;;;;;359833;111;1961747;-71
2021/07/07 06:07:32;;;;;;;7.84;3.72;;;;;;;;;;359051;111;1962019;-71
2021/07/07 06:08:37;;;;;;;10.94;4.23;;;;;;;;;;362624;111;1962906;-72
2021/07/07 06:09:42;;;;;;;7.47;3.88;;;;;;;;;;361224;111;1962075;-71
2021/07/07 06:10:50;;;;;;;6.77;3.61;;;;;;;;;;360284;111;1961873;-71
2021/07/07 06:11:57;;;;;;;9.94;3.82;;;;;;;;;;357059;113;1962904;-71
2021/07/07 06:13:03;;;;;;;8.31;3.58;;;;;;;;;;350868;111;1961875;-72
2021/07/07 06:14:08;;;;;;;8.23;3.48;;;;;;;;;;361085;111;1961846;-71
2021/07/07 06:15:14;;;;;;;8.93;3.27;;;;;;;;;;350853;111;1961876;-71
2021/07/07 06:16:26;;;;;;;4.91;2.68;;;;;;;;;;402564;101;1972884;-73
2021/07/07 06:17:31;;;;;;;6.47;3.02;;;;;;;;;;384546;105;1961963;-72
2021/07/07 06:18:37;;;;;;;12.81;3.80;;;;;;;;;;385512;105;1962006;-71
2021/07/07 06:19:42;;;;;;;7.22;3.18;;;;;;;;;;375736;107;1962008;-71
2021/07/07 06:20:49;;;;;;;7.12;3.36;;;;;;;;;;377176;107;1962144;-71
2021/07/07 06:21:57;;;;;;;9.28;4.35;;;;;;;;;;377300;105;1962069;-73
2021/07/07 06:23:02;;;;;;;9.02;3.43;;;;;;;;;;366143;108;1961903;-71
2021/07/07 06:24:33;;;;;;;10.13;4.32;;;;;;;;;;413555;99;1986062;-71
2021/07/07 06:25:38;;;;;;;7.34;4.42;;;;;;;;;;390623;101;1968924;-71
2021/07/07 06:26:50;;;;;;;9.11;4.28;;;;;;;;;;392640;104;2071015;-71